sensor_id;sensor_type;location;lat;lon;timestamp;pressure;altitude;pressure_sealevel;temperature;humidity
56082;BME280;41957;52.060;5.138;2022-12-04T00:00:11;101974.16;;;15.43;44.77
56082;BME280;41957;52.060;5.138;2022-12-04T00:02:37;101975.06;;;15.43;44.83
56082;BME280;41957;52.060;5.138;2022-12-04T00:05:04;101973.34;;;15.41;44.62
56082;BME280;41957;52.060;5.138;2022-12-04T00:07:30;101971.56;;;15.40;44.89
56082;BME280;41957;52.060;5.138;2022-12-04T00:09:55;101973.47;;;15.33;44.79
56082;BME280;41957;52.060;5.138;2022-12-04T00:12:20;101973.53;;;15.30;45.20
56082;BME280;41957;52.060;5.138;2022-12-04T00:14:46;101974.50;;;15.26;45.06
56082;BME280;41957;52.060;5.138;2022-12-04T00:17:11;101980.66;;;15.26;44.83
56082;BME280;41957;52.060;5.138;2022-12-04T00:19:37;101971.78;;;15.29;44.90
56082;BME280;41957;52.060;5.138;2022-12-04T00:22:02;101975.38;;;15.26;44.72
56082;BME280;41957;52.060;5.138;2022-12-04T00:24:27;101967.53;;;15.22;44.78
56082;BME280;41957;52.060;5.138;2022-12-04T00:26:52;101963.16;;;15.19;45.03
56082;BME280;41957;52.060;5.138;2022-12-04T00:29:18;101956.03;;;15.21;45.25
56082;BME280;41957;52.060;5.138;2022-12-04T00:31:43;101956.13;;;15.15;45.25
56082;BME280;41957;52.060;5.138;2022-12-04T00:34:09;101955.25;;;15.14;44.82
56082;BME280;41957;52.060;5.138;2022-12-04T00:36:34;101956.19;;;15.12;45.27
56082;BME280;41957;52.060;5.138;2022-12-04T00:39:00;101957.91;;;15.14;45.34
56082;BME280;41957;52.060;5.138;2022-12-04T00:41:27;101951.75;;;15.16;45.11
56082;BME280;41957;52.060;5.138;2022-12-04T00:43:53;101952.66;;;15.13;45.02
56082;BME280;41957;52.060;5.138;2022-12-04T00:46:19;101949.09;;;15.14;45.11
56082;BME280;41957;52.060;5.138;2022-12-04T00:48:45;101950.94;;;15.09;45.33
56082;BME280;41957;52.060;5.138;2022-12-04T00:51:14;101944.84;;;15.07;45.11
56082;BME280;41957;52.060;5.138;2022-12-04T00:53:40;101944.00;;;15.03;45.30
56082;BME280;41957;52.060;5.138;2022-12-04T00:56:08;101942.25;;;15.04;45.34
56082;BME280;41957;52.060;5.138;2022-12-04T00:58:34;101948.41;;;15.03;45.29
56082;BME280;41957;52.060;5.138;2022-12-04T01:01:14;101941.34;;;15.03;45.07
56082;BME280;41957;52.060;5.138;2022-12-04T01:03:39;101944.03;;;15.02;45.40
56082;BME280;41957;52.060;5.138;2022-12-04T01:06:05;101950.25;;;15.01;45.50
56082;BME280;41957;52.060;5.138;2022-12-04T01:08:31;101954.69;;;14.99;45.21
56082;BME280;41957;52.060;5.138;2022-12-04T01:10:57;101940.53;;;15.00;45.16
56082;BME280;41957;52.060;5.138;2022-12-04T01:13:23;101949.50;;;14.93;45.55
56082;BME280;41957;52.060;5.138;2022-12-04T01:15:49;101946.81;;;14.94;45.35
56082;BME280;41957;52.060;5.138;2022-12-04T01:18:15;101954.78;;;14.93;45.58
56082;BME280;41957;52.060;5.138;2022-12-04T01:20:47;101951.34;;;14.87;45.66
56082;BME280;41957;52.060;5.138;2022-12-04T01:23:13;101945.13;;;14.90;45.22
56082;BME280;41957;52.060;5.138;2022-12-04T01:25:38;101951.38;;;14.86;45.23
56082;BME280;41957;52.060;5.138;2022-12-04T01:28:03;101948.72;;;14.86;45.58
56082;BME280;41957;52.060;5.138;2022-12-04T01:30:28;101946.13;;;14.83;45.46
56082;BME280;41957;52.060;5.138;2022-12-04T01:32:54;101949.72;;;14.79;45.81
56082;BME280;41957;52.060;5.138;2022-12-04T01:35:19;101950.56;;;14.81;45.70
56082;BME280;41957;52.060;5.138;2022-12-04T01:37:44;101944.41;;;14.79;45.61
56082;BME280;41957;52.060;5.138;2022-12-04T01:40:15;101950.72;;;14.73;45.34
56082;BME280;41957;52.060;5.138;2022-12-04T01:42:41;101948.94;;;14.74;45.76
56082;BME280;41957;52.060;5.138;2022-12-04T01:45:42;101942.78;;;14.73;45.69
56082;BME280;41957;52.060;5.138;2022-12-04T01:50:41;101944.53;;;14.74;45.94
56082;BME280;41957;52.060;5.138;2022-12-04T01:53:08;101943.59;;;14.75;45.90
56082;BME280;41957;52.060;5.138;2022-12-04T01:55:33;101952.50;;;14.71;45.84
56082;BME280;41957;52.060;5.138;2022-12-04T01:57:59;101955.16;;;14.71;45.90
56082;BME280;41957;52.060;5.138;2022-12-04T02:00:26;101956.06;;;14.68;45.79
56082;BME280;41957;52.060;5.138;2022-12-04T02:02:51;101950.78;;;14.70;45.62
56082;BME280;41957;52.060;5.138;2022-12-04T02:05:19;101950.94;;;14.61;45.77
56082;BME280;41957;52.060;5.138;2022-12-04T02:07:46;101952.66;;;14.60;45.81
56082;BME280;41957;52.060;5.138;2022-12-04T02:10:13;101955.22;;;14.66;45.86
56082;BME280;41957;52.060;5.138;2022-12-04T02:20:33;101952.63;;;14.63;45.95
56082;BME280;41957;52.060;5.138;2022-12-04T02:26:23;101953.56;;;14.61;45.97
56082;BME280;41957;52.060;5.138;2022-12-04T02:37:36;101941.34;;;14.51;46.02
56082;BME280;41957;52.060;5.138;2022-12-04T02:40:19;101938.69;;;14.51;46.12
56082;BME280;41957;52.060;5.138;2022-12-04T02:43:13;101938.75;;;14.48;46.16
56082;BME280;41957;52.060;5.138;2022-12-04T02:46:02;101936.94;;;14.51;46.21
56082;BME280;41957;52.060;5.138;2022-12-04T02:48:31;101937.88;;;14.49;46.00
56082;BME280;41957;52.060;5.138;2022-12-04T02:51:00;101933.50;;;14.46;46.16
56082;BME280;41957;52.060;5.138;2022-12-04T02:53:31;101932.63;;;14.44;46.14
56082;BME280;41957;52.060;5.138;2022-12-04T02:56:02;101926.47;;;14.42;46.11
56082;BME280;41957;52.060;5.138;2022-12-04T02:58:32;101927.31;;;14.45;46.15
56082;BME280;41957;52.060;5.138;2022-12-04T03:01:00;101929.94;;;14.47;46.21
56082;BME280;41957;52.060;5.138;2022-12-04T03:03:28;101920.41;;;14.35;46.29
56082;BME280;41957;52.060;5.138;2022-12-04T03:05:59;101918.59;;;14.39;46.32
56082;BME280;41957;52.060;5.138;2022-12-04T03:08:48;101915.94;;;14.39;46.19
56082;BME280;41957;52.060;5.138;2022-12-04T03:11:17;101916.81;;;14.41;46.32
56082;BME280;41957;52.060;5.138;2022-12-04T03:13:59;101918.53;;;14.43;46.09
56082;BME280;41957;52.060;5.138;2022-12-04T03:16:30;101916.75;;;14.44;46.21
56082;BME280;41957;52.060;5.138;2022-12-04T03:19:20;101914.22;;;14.38;46.21
56082;BME280;41957;52.060;5.138;2022-12-04T03:21:59;101913.28;;;14.40;46.49
56082;BME280;41957;52.060;5.138;2022-12-04T03:24:30;101915.06;;;14.40;46.09
56082;BME280;41957;52.060;5.138;2022-12-04T03:30:00;101909.84;;;14.35;46.16
56082;BME280;41957;52.060;5.138;2022-12-04T03:35:02;101901.22;;;14.21;46.28
56082;BME280;41957;52.060;5.138;2022-12-04T03:46:01;101905.66;;;14.22;46.53
56082;BME280;41957;52.060;5.138;2022-12-04T03:48:33;101895.91;;;14.24;46.58
56082;BME280;41957;52.060;5.138;2022-12-04T03:53:59;101900.34;;;14.22;46.63
56082;BME280;41957;52.060;5.138;2022-12-04T03:56:29;101897.84;;;14.13;46.27
56082;BME280;41957;52.060;5.138;2022-12-04T03:59:05;101909.31;;;14.12;46.57
56082;BME280;41957;52.060;5.138;2022-12-04T04:01:38;101911.03;;;14.14;46.67
56082;BME280;41957;52.060;5.138;2022-12-04T04:04:06;101911.00;;;14.17;46.47
56082;BME280;41957;52.060;5.138;2022-12-04T04:06:41;101910.16;;;14.14;46.49
56082;BME280;41957;52.060;5.138;2022-12-04T04:09:12;101905.78;;;14.11;46.68
56082;BME280;41957;52.060;5.138;2022-12-04T04:17:30;101897.03;;;14.09;46.44
56082;BME280;41957;52.060;5.138;2022-12-04T04:20:22;101906.69;;;14.10;46.73
56082;BME280;41957;52.060;5.138;2022-12-04T04:23:10;101894.31;;;14.14;46.86
56082;BME280;41957;52.060;5.138;2022-12-04T04:25:57;101892.53;;;14.14;46.88
56082;BME280;41957;52.060;5.138;2022-12-04T04:28:27;101887.31;;;14.10;46.81
56082;BME280;41957;52.060;5.138;2022-12-04T04:30:56;101889.06;;;14.11;46.98
56082;BME280;41957;52.060;5.138;2022-12-04T04:33:24;101894.44;;;14.05;46.36
56082;BME280;41957;52.060;5.138;2022-12-04T04:35:54;101884.81;;;13.99;46.86
56082;BME280;41957;52.060;5.138;2022-12-04T04:38:27;101892.78;;;13.97;46.76
56082;BME280;41957;52.060;5.138;2022-12-04T04:43:30;101897.22;;;13.97;46.58
56082;BME280;41957;52.060;5.138;2022-12-04T04:46:02;101896.25;;;13.99;46.97
56082;BME280;41957;52.060;5.138;2022-12-04T04:48:39;101890.16;;;13.96;46.89
56082;BME280;41957;52.060;5.138;2022-12-04T04:51:05;101898.09;;;13.97;47.14
56082;BME280;41957;52.060;5.138;2022-12-04T04:54:04;101901.56;;;13.99;46.83
56082;BME280;41957;52.060;5.138;2022-12-04T04:56:31;101898.91;;;13.99;46.95
56082;BME280;41957;52.060;5.138;2022-12-04T04:58:56;101900.72;;;13.97;46.76
56082;BME280;41957;52.060;5.138;2022-12-04T05:01:23;101903.31;;;14.00;46.95
56082;BME280;41957;52.060;5.138;2022-12-04T05:03:50;101901.56;;;13.99;46.96
56082;BME280;41957;52.060;5.138;2022-12-04T05:06:16;101902.63;;;13.88;47.02
56082;BME280;41957;52.060;5.138;2022-12-04T05:08:41;101902.56;;;13.92;46.95
56082;BME280;41957;52.060;5.138;2022-12-04T05:11:11;101907.91;;;13.86;47.27
56082;BME280;41957;52.060;5.138;2022-12-04T05:13:37;101906.09;;;13.90;47.01
56082;BME280;41957;52.060;5.138;2022-12-04T05:16:05;101899.94;;;13.91;47.06
56082;BME280;41957;52.060;5.138;2022-12-04T05:18:32;101907.00;;;13.89;47.18
56082;BME280;41957;52.060;5.138;2022-12-04T05:20:58;101913.22;;;13.88;47.02
56082;BME280;41957;52.060;5.138;2022-12-04T05:23:24;101914.94;;;13.87;47.17
56082;BME280;41957;52.060;5.138;2022-12-04T05:25:49;101914.03;;;13.91;46.89
56082;BME280;41957;52.060;5.138;2022-12-04T05:28:15;101909.66;;;13.89;47.03
56082;BME280;41957;52.060;5.138;2022-12-04T05:30:41;101919.31;;;13.91;47.17
56082;BME280;41957;52.060;5.138;2022-12-04T05:33:06;101916.72;;;13.88;47.26
56082;BME280;41957;52.060;5.138;2022-12-04T05:35:32;101920.19;;;13.90;47.21
56082;BME280;41957;52.060;5.138;2022-12-04T05:37:57;101919.41;;;13.84;47.31
56082;BME280;41957;52.060;5.138;2022-12-04T05:40:22;101922.88;;;13.87;47.10
56082;BME280;41957;52.060;5.138;2022-12-04T05:42:48;101927.25;;;13.90;47.10
56082;BME280;41957;52.060;5.138;2022-12-04T05:45:13;101924.69;;;13.84;46.98
56082;BME280;41957;52.060;5.138;2022-12-04T05:47:39;101919.47;;;13.79;47.11
56082;BME280;41957;52.060;5.138;2022-12-04T05:50:07;101915.97;;;13.77;47.06
56082;BME280;41957;52.060;5.138;2022-12-04T05:52:33;101923.91;;;13.77;47.16
56082;BME280;41957;52.060;5.138;2022-12-04T05:54:58;101922.16;;;13.76;47.19
56082;BME280;41957;52.060;5.138;2022-12-04T05:57:23;101918.66;;;13.75;47.42
56082;BME280;41957;52.060;5.138;2022-12-04T05:59:49;101923.91;;;13.77;46.97
56082;BME280;41957;52.060;5.138;2022-12-04T06:02:15;101919.56;;;13.73;47.21
56082;BME280;41957;52.060;5.138;2022-12-04T06:04:40;101915.16;;;13.73;47.29
56082;BME280;41957;52.060;5.138;2022-12-04T06:07:05;101908.91;;;13.77;47.41
56082;BME280;41957;52.060;5.138;2022-12-04T06:09:31;101908.97;;;13.76;47.29
56082;BME280;41957;52.060;5.138;2022-12-04T06:11:57;101908.09;;;13.72;47.05
56082;BME280;41957;52.060;5.138;2022-12-04T06:14:22;101909.88;;;13.72;47.44
56082;BME280;41957;52.060;5.138;2022-12-04T06:16:47;101913.41;;;13.69;47.19
56082;BME280;41957;52.060;5.138;2022-12-04T06:19:16;101916.03;;;13.74;47.47
56082;BME280;41957;52.060;5.138;2022-12-04T06:21:43;101917.75;;;13.75;47.46
56082;BME280;41957;52.060;5.138;2022-12-04T06:24:14;101908.22;;;13.63;47.11
56082;BME280;41957;52.060;5.138;2022-12-04T06:26:40;101907.34;;;13.64;47.51
56082;BME280;41957;52.060;5.138;2022-12-04T06:29:05;101910.75;;;13.72;47.41
56082;BME280;41957;52.060;5.138;2022-12-04T06:31:30;101908.16;;;13.68;47.42
56082;BME280;41957;52.060;5.138;2022-12-04T06:33:57;101908.22;;;13.63;47.33
56082;BME280;41957;52.060;5.138;2022-12-04T06:36:23;101909.13;;;13.64;47.54
56082;BME280;41957;52.060;5.138;2022-12-04T06:38:49;101911.69;;;13.70;47.45
56082;BME280;41957;52.060;5.138;2022-12-04T06:41:18;101910.78;;;13.69;47.44
56082;BME280;41957;52.060;5.138;2022-12-04T06:43:44;101910.78;;;13.71;47.49
56082;BME280;41957;52.060;5.138;2022-12-04T06:46:11;101914.28;;;13.73;47.49
56082;BME280;41957;52.060;5.138;2022-12-04T06:48:37;101918.75;;;13.68;47.38
56082;BME280;41957;52.060;5.138;2022-12-04T06:51:05;101916.97;;;13.70;47.33
56082;BME280;41957;52.060;5.138;2022-12-04T06:53:31;101924.94;;;13.67;47.64
56082;BME280;41957;52.060;5.138;2022-12-04T06:55:58;101917.00;;;13.65;47.55
56082;BME280;41957;52.060;5.138;2022-12-04T06:58:25;101924.97;;;13.62;47.36
56082;BME280;41957;52.060;5.138;2022-12-04T07:00:51;101920.56;;;13.63;47.51
56082;BME280;41957;52.060;5.138;2022-12-04T07:03:17;101917.09;;;13.61;47.56
56082;BME280;41957;52.060;5.138;2022-12-04T07:05:42;101917.97;;;13.60;47.43
56082;BME280;41957;52.060;5.138;2022-12-04T07:08:08;101918.81;;;13.60;47.51
56082;BME280;41957;52.060;5.138;2022-12-04T07:10:36;101919.75;;;13.58;47.65
56082;BME280;41957;52.060;5.138;2022-12-04T07:13:03;101918.00;;;13.57;47.55
56082;BME280;41957;52.060;5.138;2022-12-04T07:15:29;101912.81;;;13.49;47.40
56082;BME280;41957;52.060;5.138;2022-12-04T07:17:55;101920.81;;;13.41;47.50
56082;BME280;41957;52.060;5.138;2022-12-04T07:20:20;101912.94;;;13.38;47.37
56082;BME280;41957;52.060;5.138;2022-12-04T07:22:45;101921.72;;;13.40;47.38
56082;BME280;41957;52.060;5.138;2022-12-04T07:25:11;101918.25;;;13.35;47.68
56082;BME280;41957;52.060;5.138;2022-12-04T07:27:36;101916.44;;;13.40;47.64
56082;BME280;41957;52.060;5.138;2022-12-04T07:30:03;101915.66;;;13.32;47.65
56082;BME280;41957;52.060;5.138;2022-12-04T07:32:28;101913.03;;;13.29;47.59
56082;BME280;41957;52.060;5.138;2022-12-04T07:34:54;101921.84;;;13.31;47.88
56082;BME280;41957;52.060;5.138;2022-12-04T07:37:19;101919.22;;;13.28;47.97
56082;BME280;41957;52.060;5.138;2022-12-04T07:39:44;101927.19;;;13.20;47.69
56082;BME280;41957;52.060;5.138;2022-12-04T07:42:09;101926.28;;;13.24;47.98
56082;BME280;41957;52.060;5.138;2022-12-04T07:44:35;101930.53;;;13.42;47.74
56082;BME280;41957;52.060;5.138;2022-12-04T07:47:01;101934.84;;;13.46;47.52
56082;BME280;41957;52.060;5.138;2022-12-04T07:49:26;101932.28;;;13.40;47.46
56082;BME280;41957;52.060;5.138;2022-12-04T07:51:52;101936.66;;;13.41;47.54
56082;BME280;41957;52.060;5.138;2022-12-04T07:54:17;101936.63;;;13.44;47.58
56082;BME280;41957;52.060;5.138;2022-12-04T07:56:42;101941.16;;;13.36;47.18
56082;BME280;41957;52.060;5.138;2022-12-04T07:59:08;101939.38;;;13.35;47.41
56082;BME280;41957;52.060;5.138;2022-12-04T08:01:33;101938.47;;;13.39;47.66
56082;BME280;41957;52.060;5.138;2022-12-04T08:03:59;101946.25;;;13.51;47.70
56082;BME280;41957;52.060;5.138;2022-12-04T08:06:26;101937.88;;;13.87;46.68
56082;BME280;41957;52.060;5.138;2022-12-04T08:08:53;101935.44;;;14.33;45.41
56082;BME280;41957;52.060;5.138;2022-12-04T08:11:21;101940.03;;;14.79;44.68
56082;BME280;41957;52.060;5.138;2022-12-04T08:13:47;101946.44;;;15.14;43.92
56082;BME280;41957;52.060;5.138;2022-12-04T08:16:13;101947.78;;;15.36;43.67
56082;BME280;41957;52.060;5.138;2022-12-04T08:18:39;101939.59;;;15.49;43.01
56082;BME280;41957;52.060;5.138;2022-12-04T08:21:13;101934.88;;;15.63;42.79
56082;BME280;41957;52.060;5.138;2022-12-04T08:23:41;101947.78;;;15.81;42.31
56082;BME280;41957;52.060;5.138;2022-12-04T08:26:07;101946.59;;;15.96;42.28
56082;BME280;41957;52.060;5.138;2022-12-04T08:28:34;101955.97;;;16.11;42.12
56082;BME280;41957;52.060;5.138;2022-12-04T08:31:09;101949.53;;;16.21;41.82
56082;BME280;41957;52.060;5.138;2022-12-04T08:33:35;101951.91;;;16.34;42.08
56082;BME280;41957;52.060;5.138;2022-12-04T08:36:01;101958.06;;;16.37;41.65
56082;BME280;41957;52.060;5.138;2022-12-04T08:38:29;101962.31;;;16.43;41.70
56082;BME280;41957;52.060;5.138;2022-12-04T08:40:58;101956.97;;;16.44;41.53
56082;BME280;41957;52.060;5.138;2022-12-04T08:43:24;101961.38;;;16.45;41.52
56082;BME280;41957;52.060;5.138;2022-12-04T08:46:00;101960.63;;;16.40;42.05
56082;BME280;41957;52.060;5.138;2022-12-04T08:48:26;101964.94;;;16.44;41.76
56082;BME280;41957;52.060;5.138;2022-12-04T08:50:52;101961.50;;;16.41;41.67
56082;BME280;41957;52.060;5.138;2022-12-04T08:53:17;101961.50;;;16.39;41.90
56082;BME280;41957;52.060;5.138;2022-12-04T08:55:43;101967.75;;;16.38;41.96
56082;BME280;41957;52.060;5.138;2022-12-04T08:58:08;101967.75;;;16.37;41.81
56082;BME280;41957;52.060;5.138;2022-12-04T09:00:33;101963.41;;;16.34;41.39
56082;BME280;41957;52.060;5.138;2022-12-04T09:02:59;101963.53;;;16.28;41.79
56082;BME280;41957;52.060;5.138;2022-12-04T09:05:24;101966.38;;;16.20;41.74
56082;BME280;41957;52.060;5.138;2022-12-04T09:07:50;101962.28;;;16.05;41.55
56082;BME280;41957;52.060;5.138;2022-12-04T09:10:15;101971.19;;;16.03;41.84
56082;BME280;41957;52.060;5.138;2022-12-04T09:12:40;101965.94;;;16.01;41.33
56082;BME280;41957;52.060;5.138;2022-12-04T09:15:06;101970.38;;;15.99;41.54
56082;BME280;41957;52.060;5.138;2022-12-04T09:17:34;101964.28;;;15.94;41.29
56082;BME280;41957;52.060;5.138;2022-12-04T09:20:00;101959.19;;;15.87;41.57
56082;BME280;41957;52.060;5.138;2022-12-04T09:22:26;101960.22;;;15.79;42.11
56082;BME280;41957;52.060;5.138;2022-12-04T09:24:51;101963.09;;;15.67;42.98
56082;BME280;41957;52.060;5.138;2022-12-04T09:27:16;101963.38;;;15.53;43.68
56082;BME280;41957;52.060;5.138;2022-12-04T09:29:41;101965.25;;;15.47;43.89
56082;BME280;41957;52.060;5.138;2022-12-04T09:32:07;101976.69;;;15.49;44.44
56082;BME280;41957;52.060;5.138;2022-12-04T09:34:32;101966.25;;;15.40;44.21
56082;BME280;41957;52.060;5.138;2022-12-04T09:36:57;101968.16;;;15.34;44.67
56082;BME280;41957;52.060;5.138;2022-12-04T09:39:23;101969.09;;;15.30;44.54
56082;BME280;41957;52.060;5.138;2022-12-04T09:42:07;101966.44;;;15.30;44.79
56082;BME280;41957;52.060;5.138;2022-12-04T09:44:52;101969.09;;;15.30;44.81
56082;BME280;41957;52.060;5.138;2022-12-04T09:47:38;101962.88;;;15.33;44.74
56082;BME280;41957;52.060;5.138;2022-12-04T09:53:02;101967.47;;;15.23;44.39
56082;BME280;41957;52.060;5.138;2022-12-04T09:55:43;101969.25;;;15.21;44.52
56082;BME280;41957;52.060;5.138;2022-12-04T09:58:17;101965.03;;;15.12;44.57
56082;BME280;41957;52.060;5.138;2022-12-04T10:00:46;101964.97;;;15.16;44.68
56082;BME280;41957;52.060;5.138;2022-12-04T10:03:17;101964.94;;;15.17;45.20
56082;BME280;41957;52.060;5.138;2022-12-04T10:06:11;101966.03;;;15.52;44.49
56082;BME280;41957;52.060;5.138;2022-12-04T10:08:44;101964.66;;;15.77;43.91
56082;BME280;41957;52.060;5.138;2022-12-04T10:16:53;101955.38;;;15.98;43.15
56082;BME280;41957;52.060;5.138;2022-12-04T10:25:00;101963.69;;;15.81;42.67
56082;BME280;41957;52.060;5.138;2022-12-04T10:27:33;101957.66;;;15.75;42.54
56082;BME280;41957;52.060;5.138;2022-12-04T10:30:04;101959.31;;;15.80;43.03
56082;BME280;41957;52.060;5.138;2022-12-04T10:32:32;101960.09;;;15.86;42.54
56082;BME280;41957;52.060;5.138;2022-12-04T10:35:07;101950.31;;;15.88;42.86
56082;BME280;41957;52.060;5.138;2022-12-04T10:37:40;101954.31;;;16.07;42.42
56082;BME280;41957;52.060;5.138;2022-12-04T10:40:18;101955.84;;;16.16;42.20
56082;BME280;41957;52.060;5.138;2022-12-04T10:45:52;101953.00;;;16.25;42.15
56082;BME280;41957;52.060;5.138;2022-12-04T10:48:23;101951.25;;;16.24;42.14
56082;BME280;41957;52.060;5.138;2022-12-04T10:50:50;101948.53;;;16.28;42.12
56082;BME280;41957;52.060;5.138;2022-12-04T10:53:16;101941.16;;;16.40;42.68
56082;BME280;41957;52.060;5.138;2022-12-04T10:55:43;101946.31;;;16.46;42.94
56082;BME280;41957;52.060;5.138;2022-12-04T10:58:16;101949.03;;;16.43;42.36
56082;BME280;41957;52.060;5.138;2022-12-04T11:00:43;101950.81;;;16.44;42.75
56082;BME280;41957;52.060;5.138;2022-12-04T11:03:23;101938.41;;;16.44;42.08
56082;BME280;41957;52.060;5.138;2022-12-04T11:05:54;101932.06;;;16.50;42.36
56082;BME280;41957;52.060;5.138;2022-12-04T11:08:50;101927.47;;;16.57;41.92
56082;BME280;41957;52.060;5.138;2022-12-04T11:11:23;101934.59;;;16.55;42.30
56082;BME280;41957;52.060;5.138;2022-12-04T11:14:06;101928.44;;;16.54;42.15
56082;BME280;41957;52.060;5.138;2022-12-04T11:16:40;101930.31;;;16.49;42.25
56082;BME280;41957;52.060;5.138;2022-12-04T11:19:23;101935.69;;;16.47;41.99
56082;BME280;41957;52.060;5.138;2022-12-04T11:21:50;101935.78;;;16.43;42.01
56082;BME280;41957;52.060;5.138;2022-12-04T11:24:20;101937.69;;;16.38;41.85
56082;BME280;41957;52.060;5.138;2022-12-04T11:26:47;101923.72;;;16.29;41.81
56082;BME280;41957;52.060;5.138;2022-12-04T11:29:16;101930.91;;;16.24;42.14
56082;BME280;41957;52.060;5.138;2022-12-04T11:31:51;101929.59;;;16.05;41.42
56082;BME280;41957;52.060;5.138;2022-12-04T11:34:24;101931.59;;;15.94;41.17
56082;BME280;41957;52.060;5.138;2022-12-04T11:36:55;101924.69;;;15.87;41.10
56082;BME280;41957;52.060;5.138;2022-12-04T11:42:15;101916.41;;;15.60;42.54
56082;BME280;41957;52.060;5.138;2022-12-04T11:44:50;101912.97;;;15.55;42.75
56082;BME280;41957;52.060;5.138;2022-12-04T11:47:18;101905.13;;;15.50;43.42
56082;BME280;41957;52.060;5.138;2022-12-04T11:49:44;101908.69;;;15.48;43.56
56082;BME280;41957;52.060;5.138;2022-12-04T11:52:31;101899.97;;;15.43;43.75
56082;BME280;41957;52.060;5.138;2022-12-04T11:55:16;101895.63;;;15.40;44.18
56082;BME280;41957;52.060;5.138;2022-12-04T11:58:01;101878.84;;;15.40;44.82
56082;BME280;41957;52.060;5.138;2022-12-04T12:00:32;101880.53;;;15.44;44.54
56082;BME280;41957;52.060;5.138;2022-12-04T12:03:20;101883.47;;;15.73;44.32
56082;BME280;41957;52.060;5.138;2022-12-04T12:06:29;101869.28;;;16.13;43.46
56082;BME280;41957;52.060;5.138;2022-12-04T12:09:19;101867.31;;;16.21;43.56
56082;BME280;41957;52.060;5.138;2022-12-04T12:11:55;101875.19;;;16.24;43.73
56082;BME280;41957;52.060;5.138;2022-12-04T12:17:06;101870.25;;;16.45;43.85
56082;BME280;41957;52.060;5.138;2022-12-04T12:19:58;101875.19;;;16.60;43.72
56082;BME280;41957;52.060;5.138;2022-12-04T12:26:03;101877.06;;;16.91;43.98
56082;BME280;41957;52.060;5.138;2022-12-04T12:31:13;101883.44;;;17.16;43.49
56082;BME280;41957;52.060;5.138;2022-12-04T12:33:49;101879.09;;;17.14;43.60
56082;BME280;41957;52.060;5.138;2022-12-04T12:36:16;101884.25;;;17.18;43.76
56082;BME280;41957;52.060;5.138;2022-12-04T12:38:49;101885.97;;;17.21;43.62
56082;BME280;41957;52.060;5.138;2022-12-04T12:41:22;101885.84;;;17.26;43.27
56082;BME280;41957;52.060;5.138;2022-12-04T12:44:13;101881.06;;;17.37;43.25
56082;BME280;41957;52.060;5.138;2022-12-04T12:46:47;101872.97;;;17.41;42.94
56082;BME280;41957;52.060;5.138;2022-12-04T12:49:26;101877.59;;;17.35;42.98
56082;BME280;41957;52.060;5.138;2022-12-04T12:54:48;101878.50;;;17.34;43.34
56082;BME280;41957;52.060;5.138;2022-12-04T12:59:54;101870.72;;;17.28;43.29
56082;BME280;41957;52.060;5.138;2022-12-04T13:05:11;101863.78;;;17.22;43.19
56082;BME280;41957;52.060;5.138;2022-12-04T13:07:53;101863.94;;;17.17;43.59
56082;BME280;41957;52.060;5.138;2022-12-04T13:10:27;101863.31;;;17.08;43.14
56082;BME280;41957;52.060;5.138;2022-12-04T13:13:11;101858.13;;;17.03;43.62
56082;BME280;41957;52.060;5.138;2022-12-04T13:15:45;101855.59;;;16.99;43.46
56082;BME280;41957;52.060;5.138;2022-12-04T13:18:44;101854.00;;;16.93;43.30
56082;BME280;41957;52.060;5.138;2022-12-04T13:27:01;101836.81;;;16.72;42.84
56082;BME280;41957;52.060;5.138;2022-12-04T13:29:37;101849.34;;;16.67;42.09
56082;BME280;41957;52.060;5.138;2022-12-04T13:32:38;101848.88;;;16.51;41.79
56082;BME280;41957;52.060;5.138;2022-12-04T13:38:19;101841.28;;;16.37;42.48
56082;BME280;41957;52.060;5.138;2022-12-04T13:40:52;101839.06;;;16.19;42.53
56082;BME280;41957;52.060;5.138;2022-12-04T13:46:19;101847.41;;;16.03;43.47
56082;BME280;41957;52.060;5.138;2022-12-04T13:48:47;101851.97;;;15.97;43.85
56082;BME280;41957;52.060;5.138;2022-12-04T13:53:38;101844.31;;;15.85;43.96
56082;BME280;41957;52.060;5.138;2022-12-04T13:56:06;101837.19;;;15.87;44.11
56082;BME280;41957;52.060;5.138;2022-12-04T13:58:34;101840.88;;;15.81;44.21
56082;BME280;41957;52.060;5.138;2022-12-04T14:01:21;101850.81;;;15.71;44.33
56082;BME280;41957;52.060;5.138;2022-12-04T14:03:49;101844.66;;;15.71;44.76
56082;BME280;41957;52.060;5.138;2022-12-04T14:06:42;101857.97;;;15.68;44.36
56082;BME280;41957;52.060;5.138;2022-12-04T14:09:41;101869.44;;;15.68;45.01
56082;BME280;41957;52.060;5.138;2022-12-04T14:12:10;101853.69;;;15.59;44.86
56082;BME280;41957;52.060;5.138;2022-12-04T14:14:43;101855.44;;;15.60;45.06
56082;BME280;41957;52.060;5.138;2022-12-04T14:17:38;101849.34;;;15.56;45.11
56082;BME280;41957;52.060;5.138;2022-12-04T14:20:29;101855.56;;;15.54;45.54
56082;BME280;41957;52.060;5.138;2022-12-04T14:22:53;101862.88;;;15.43;45.43
56082;BME280;41957;52.060;5.138;2022-12-04T14:25:32;101857.63;;;15.40;45.56
56082;BME280;41957;52.060;5.138;2022-12-04T14:27:59;101849.75;;;15.36;45.53
56082;BME280;41957;52.060;5.138;2022-12-04T14:30:28;101846.34;;;15.30;46.06
56082;BME280;41957;52.060;5.138;2022-12-04T14:33:07;101861.63;;;15.19;46.24
56082;BME280;41957;52.060;5.138;2022-12-04T14:35:33;101856.34;;;15.17;46.09
56082;BME280;41957;52.060;5.138;2022-12-04T14:38:15;101861.31;;;15.32;45.89
56082;BME280;41957;52.060;5.138;2022-12-04T14:40:44;101862.19;;;15.34;44.92
56082;BME280;41957;52.060;5.138;2022-12-04T14:43:19;101863.06;;;15.33;45.12
56082;BME280;41957;52.060;5.138;2022-12-04T14:51:17;101856.94;;;15.31;45.87